Ekaterini P. — SYZJ — position and weather

sailwx.info

Track history (hours):
 
Tides and Currents Weather Stations Pressure Air Temp Water Temp Dewpoint Dewpoint Depression Visibility Wind Speed Wind Dir Waves Ship Positions

Ekaterini P.

Last reported at 2018-Jun-24 09:00 UTC. Time now 2018-Jun-24 09:17 UTC.
Position N 37°29' E 025°15'.

Length 116 m; draft 4.4 m.

Type: Passenger vessel. MMSI: 237044600.

Date/timePositionNaut miles runAvg speedWind from/ knotsBaromVisibWave heightAir tempDewpointWater temp
2018-Jun-24 09:00N 37°29' E 025°15'612.2
2018-Jun-24 08:30N 37°32' E 025°09'815.6
2018-Jun-24 08:00N 37°37' E 025°01'5018.9
2018-Jun-24 05:21N 38°00' E 024°05'3 0.3
2018-Jun-23 18:23N 38°01' E 024°01'818.2
2018-Jun-23 17:55N 37°59' E 024°11'3418.4
2018-Jun-23 16:04N 37°44' E 024°50'118.8
2018-Jun-23 16:00N 37°43' E 024°51'918.7
2018-Jun-23 15:30N 37°37' E 025°00'916.9
2018-Jun-23 15:00N 37°32' E 025°09'3 5.3
2018-Jun-23 14:30N 37°31' E 025°12'713.0
2018-Jun-23 14:00N 37°28' E 025°19'510.3
2018-Jun-23 13:30N 37°23' E 025°17'918.8
2018-Jun-23 13:00N 37°14' E 025°20'815.5
2018-Jun-23 12:30N 37°06' E 025°22'0 0.0
2018-Jun-23 12:01N 37°06' E 025°22'0 0.0
2018-Jun-23 11:31N 37°06' E 025°22'0 0.0
2018-Jun-23 11:00N 37°06' E 025°22'511.0
2018-Jun-23 10:30N 37°12' E 025°20'1019.2
2018-Jun-23 10:00N 37°21' E 025°18'713.9
2018-Jun-23 09:31N 37°28' E 025°19'4 7.7
2018-Jun-23 09:00N 37°29' E 025°15'510.6
2018-Jun-23 08:30N 37°32' E 025°09'714.4
2018-Jun-23 08:00N 37°36' E 025°01'1018.8
2018-Jun-23 07:30N 37°41' E 024°51'4319.1
2018-Jun-23 05:16N 38°01' E 024°03'2 0.2
2018-Jun-22 17:48N 38°01' E 024°01'516.8
2018-Jun-22 17:30N 37°60' E 024°07'4318.9
2018-Jun-22 15:14N 37°38' E 024°54'519.3
2018-Jun-22 14:58N 37°36' E 024°60'918.5
2018-Jun-22 14:31N 37°32' E 025°09'2 3.8
2018-Jun-22 14:00N 37°31' E 025°11'714.6
2018-Jun-22 13:30N 37°28' E 025°19'3 6.8
2018-Jun-22 13:01N 37°25' E 025°17'1019.2
2018-Jun-22 12:31N 37°15' E 025°19'918.7
2018-Jun-22 12:00N 37°06' E 025°22'0 0.2
2018-Jun-22 11:29N 37°06' E 025°22'0 0.0
2018-Jun-22 11:00N 37°06' E 025°22'5 9.5
2018-Jun-22 10:30N 37°11' E 025°20'1019.1
2018-Jun-22 10:00N 37°20' E 025°18'815.6
2018-Jun-22 09:31N 37°28' E 025°19'5 9.5
2018-Jun-22 09:00N 37°30' E 025°14'4 8.7
2018-Jun-22 08:31N 37°32' E 025°09'917.1
2018-Jun-22 08:00N 37°36' E 024°59'1018.7
2018-Jun-22 07:28N 37°41' E 024°48'4118.7
2018-Jun-22 05:18N 38°00' E 024°03'2 0.2
2018-Jun-21 17:48N 38°01' E 024°01'518.0
2018-Jun-21 17:30N 37°60' E 024°07'3719.0
2018-Jun-21 15:32N 37°43' E 024°50'119.3
2018-Jun-21 15:30N 37°43' E 024°50'1019.1
2018-Jun-21 15:00N 37°37' E 024°60'917.8
2018-Jun-21 14:30N 37°32' E 025°09'1 3.0
2018-Jun-21 14:00N 37°31' E 025°11'815.5
2018-Jun-21 13:30N 37°28' E 025°19'4 8.2
2018-Jun-21 13:00N 37°24' E 025°17'918.9
2018-Jun-21 12:30N 37°15' E 025°19'917.7
2018-Jun-21 12:00N 37°06' E 025°22'0 0.1
2018-Jun-21 11:29N 37°06' E 025°22'0 0.0
2018-Jun-21 11:00N 37°06' E 025°22'4 8.6
2018-Jun-21 10:30N 37°10' E 025°21'1019.2
2018-Jun-21 10:01N 37°20' E 025°18'815.5
2018-Jun-21 09:29N 37°28' E 025°20'2 4.5
2018-Jun-21 09:00N 37°28' E 025°17'714.2
2018-Jun-21 08:30N 37°32' E 025°09'5818.3
2018-Jun-21 05:19N 38°00' E 024°04'3 0.3
2018-Jun-20 17:50N 38°01' E 024°01'616.8
2018-Jun-20 17:30N 37°60' E 024°08'3818.9
2018-Jun-20 15:29N 37°42' E 024°50'1219.1
2018-Jun-20 14:53N 37°35' E 025°02'617.4
2018-Jun-20 14:31N 37°32' E 025°09'4 7.1
2018-Jun-20 14:01N 37°30' E 025°13'611.2
2018-Jun-20 13:31N 37°28' E 025°19'4 8.5
2018-Jun-20 13:00N 37°24' E 025°17'918.8
2018-Jun-20 12:30N 37°15' E 025°20'917.4
2018-Jun-20 12:00N 37°06' E 025°22'0 0.1
2018-Jun-20 11:31N 37°06' E 025°22'0 0.0
2018-Jun-20 11:01N 37°06' E 025°22'713.3
2018-Jun-20 10:30N 37°13' E 025°20'1019.3
2018-Jun-20 10:00N 37°22' E 025°18'611.7
2018-Jun-20 09:30N 37°28' E 025°19'4 8.6
2018-Jun-20 09:00N 37°29' E 025°14'510.0
2018-Jun-20 08:30N 37°32' E 025°09'1517.7
2018-Jun-20 07:41N 37°39' E 024°53'418.4
2018-Jun-20 07:27N 37°42' E 024°49'3718.3
2018-Jun-20 05:25N 37°59' E 024°07'5 0.5
2018-Jun-19 17:54N 38°01' E 024°01'4318.3
2018-Jun-19 15:34N 37°43' E 024°50'118.6
2018-Jun-19 15:30N 37°43' E 024°51'1018.6
2018-Jun-19 14:59N 37°37' E 025°00'817.6
2018-Jun-19 14:30N 37°32' E 025°09'3 5.7
2018-Jun-19 14:00N 37°31' E 025°12'612.7
2018-Jun-19 13:30N 37°28' E 025°19'4 8.5
2018-Jun-19 13:00N 37°24' E 025°17'918.5
2018-Jun-19 12:30N 37°15' E 025°19'917.7
2018-Jun-19 12:00N 37°06' E 025°22'0 0.2
2018-Jun-19 11:30N 37°06' E 025°22'0 0.0
2018-Jun-19 11:00N 37°06' E 025°22'4 7.7
2018-Jun-19 10:30N 37°10' E 025°20'1019.1
2018-Jun-19 10:00N 37°19' E 025°18'817.0
2018-Jun-19 09:30N 37°28' E 025°19'2 4.6
2018-Jun-19 09:00N 37°28' E 025°17'714.0
2018-Jun-19 08:30N 37°32' E 025°09'815.1
2018-Jun-19 08:00N 37°36' E 025°01'5018.7
2018-Jun-19 05:19N 37°60' E 024°05'4 0.3
2018-Jun-18 17:48N 38°01' E 024°01'516.1
2018-Jun-18 17:30N 38°00' E 024°07'3819.3
2018-Jun-18 15:31N 37°42' E 024°50'118.5
2018-Jun-18 15:28N 37°42' E 024°50'1019.0
2018-Jun-18 14:55N 37°36' E 025°01'717.7
2018-Jun-18 14:30N 37°32' E 025°09'0 0.9
2018-Jun-18 14:01N 37°32' E 025°09'917.9
2018-Jun-18 13:30N 37°28' E 025°19'4 8.1
2018-Jun-18 13:00N 37°24' E 025°17'919.0
2018-Jun-18 12:30N 37°15' E 025°19'917.6
2018-Jun-18 12:00N 37°06' E 025°22'0 0.1
2018-Jun-18 11:30N 37°06' E 025°22'0 0.0
2018-Jun-18 11:00N 37°06' E 025°22'4 8.8
2018-Jun-18 10:30N 37°10' E 025°20'1019.1
2018-Jun-18 10:00N 37°20' E 025°18'816.2
2018-Jun-18 09:30N 37°28' E 025°19'2 4.4
2018-Jun-18 09:00N 37°29' E 025°17'713.9
2018-Jun-18 08:30N 37°32' E 025°09'815.3
2018-Jun-18 08:00N 37°36' E 025°01'5019.0
2018-Jun-18 05:23N 37°60' E 024°06'4 0.4
2018-Jun-17 18:27N 38°01' E 024°01'5318.6
2018-Jun-17 15:34N 37°36' E 025°00'119.1
2018-Jun-17 15:31N 37°35' E 025°01'713.6
2018-Jun-17 15:00N 37°32' E 025°09'1 1.1
2018-Jun-17 14:31N 37°32' E 025°09'918.1
2018-Jun-17 14:00N 37°28' E 025°19'5 9.6
2018-Jun-17 13:30N 37°23' E 025°17'1019.6
2018-Jun-17 13:00N 37°14' E 025°20'815.3
2018-Jun-17 12:30N 37°06' E 025°22'0 0.0
2018-Jun-17 12:00N 37°06' E 025°22'0 0.0
2018-Jun-17 11:30N 37°06' E 025°22'0 0.0
2018-Jun-17 11:00N 37°06' E 025°22'5 9.4
2018-Jun-17 10:30N 37°11' E 025°20'918.9
2018-Jun-17 10:00N 37°20' E 025°18'815.6
2018-Jun-17 09:30N 37°28' E 025°19'2 4.8
2018-Jun-17 09:00N 37°28' E 025°17'713.7
2018-Jun-17 08:30N 37°32' E 025°09'714.3
2018-Jun-17 08:01N 37°35' E 025°01'1219.1
2018-Jun-17 07:23N 37°42' E 024°49'3919.1
2018-Jun-17 05:21N 37°60' E 024°05'3 0.3
2018-Jun-16 18:21N 38°01' E 024°01'617.2
2018-Jun-16 18:00N 37°60' E 024°08'4618.6
2018-Jun-16 15:30N 37°36' E 024°59'917.9
2018-Jun-16 15:01N 37°32' E 025°09'1 2.2
2018-Jun-16 14:31N 37°31' E 025°10'816.2
2018-Jun-16 14:00N 37°28' E 025°19'5 9.0
2018-Jun-16 13:30N 37°24' E 025°17'1019.5
2018-Jun-16 13:00N 37°14' E 025°20'816.0
2018-Jun-16 12:30N 37°06' E 025°22'0 0.0
2018-Jun-16 12:00N 37°06' E 025°22'0 0.0
2018-Jun-16 11:30N 37°06' E 025°22'0 0.0
2018-Jun-16 11:00N 37°06' E 025°22'510.8
2018-Jun-16 10:31N 37°11' E 025°20'918.7
2018-Jun-16 10:00N 37°21' E 025°18'714.5
2018-Jun-16 09:30N 37°28' E 025°19'611.6
2018-Jun-16 09:00N 37°30' E 025°13'3 6.9
2018-Jun-16 08:30N 37°32' E 025°09'5818.7
2018-Jun-16 05:25N 37°60' E 024°05'4 0.3
2018-Jun-15 17:54N 38°01' E 024°01'716.9
2018-Jun-15 17:29N 37°59' E 024°10'3518.5
2018-Jun-15 15:35N 37°43' E 024°49'218.6
2018-Jun-15 15:29N 37°42' E 024°51'918.8
2018-Jun-15 14:59N 37°36' E 025°00'817.1
2018-Jun-15 14:30N 37°32' E 025°09'3 5.6
2018-Jun-15 14:01N 37°30' E 025°12'712.9
2018-Jun-15 13:30N 37°28' E 025°19'5 9.1
2018-Jun-15 13:00N 37°24' E 025°17'1319.3
2018-Jun-15 12:20N 37°11' E 025°21'514.4
2018-Jun-15 12:00N 37°06' E 025°22'0 0.1
2018-Jun-15 11:30N 37°06' E 025°22'0 0.1
2018-Jun-15 11:01N 37°06' E 025°22'4 8.8
2018-Jun-15 10:31N 37°10' E 025°20'918.8
2018-Jun-15 10:01N 37°20' E 025°18'816.1
2018-Jun-15 09:30N 37°28' E 025°19'3 5.7
2018-Jun-15 09:00N 37°29' E 025°16'612.6
2018-Jun-15 08:30N 37°32' E 025°09'715.0
2018-Jun-15 08:01N 37°36' E 025°01'918.8
2018-Jun-15 07:31N 37°41' E 024°51'4218.7
2018-Jun-15 05:15N 38°00' E 024°04'2 0.1
2018-Jun-14 17:47N 38°01' E 024°02'519.0
2018-Jun-14 17:30N 37°60' E 024°08'3719.1
2018-Jun-14 15:34N 37°41' E 024°49'219.0
2018-Jun-14 15:27N 37°40' E 024°51'919.3
2018-Jun-14 15:00N 37°36' E 025°01'814.9
2018-Jun-14 14:30N 37°32' E 025°09'2 3.7
2018-Jun-14 14:00N 37°31' E 025°11'715.1
2018-Jun-14 13:31N 37°28' E 025°19'4 7.7
2018-Jun-14 13:00N 37°24' E 025°17'1019.3
2018-Jun-14 12:31N 37°15' E 025°20'917.8
2018-Jun-14 12:00N 37°06' E 025°22'0 0.1
2018-Jun-14 11:30N 37°06' E 025°22'0 0.0
2018-Jun-14 11:00N 37°06' E 025°22'5 9.5
2018-Jun-14 10:30N 37°11' E 025°20'918.7
2018-Jun-14 10:00N 37°20' E 025°18'815.8
2018-Jun-14 09:30N 37°28' E 025°19'1 2.5
2018-Jun-14 09:01N 37°28' E 025°18'  
Track history (hours):
 
Tides and Currents Weather Stations Pressure Air Temp Water Temp Dewpoint Dewpoint Depression Visibility Wind Speed Wind Dir Waves Ship Positions

Ekaterini P.

Last reported at 2018-Jun-24 09:00 UTC. Time now 2018-Jun-24 09:17 UTC.
Position N 37°29' E 025°15'.

Length 116 m; draft 4.4 m.

Type: Passenger vessel. MMSI: 237044600.

Date/timePositionNaut miles runAvg speedWind from/ knotsBaromVisibWave heightAir tempDewpointWater temp
2018-Jun-24 09:00N 37°29' E 025°15'612.2
2018-Jun-24 08:30N 37°32' E 025°09'815.6
2018-Jun-24 08:00N 37°37' E 025°01'5018.9
2018-Jun-24 05:21N 38°00' E 024°05'3 0.3
2018-Jun-23 18:23N 38°01' E 024°01'818.2
2018-Jun-23 17:55N 37°59' E 024°11'3418.4
2018-Jun-23 16:04N 37°44' E 024°50'118.8
2018-Jun-23 16:00N 37°43' E 024°51'918.7
2018-Jun-23 15:30N 37°37' E 025°00'916.9
2018-Jun-23 15:00N 37°32' E 025°09'3 5.3
2018-Jun-23 14:30N 37°31' E 025°12'713.0
2018-Jun-23 14:00N 37°28' E 025°19'510.3
2018-Jun-23 13:30N 37°23' E 025°17'918.8
2018-Jun-23 13:00N 37°14' E 025°20'815.5
2018-Jun-23 12:30N 37°06' E 025°22'0 0.0
2018-Jun-23 12:01N 37°06' E 025°22'0 0.0
2018-Jun-23 11:31N 37°06' E 025°22'0 0.0
2018-Jun-23 11:00N 37°06' E 025°22'511.0
2018-Jun-23 10:30N 37°12' E 025°20'1019.2
2018-Jun-23 10:00N 37°21' E 025°18'713.9
2018-Jun-23 09:31N 37°28' E 025°19'4 7.7
2018-Jun-23 09:00N 37°29' E 025°15'510.6
2018-Jun-23 08:30N 37°32' E 025°09'714.4
2018-Jun-23 08:00N 37°36' E 025°01'1018.8
2018-Jun-23 07:30N 37°41' E 024°51'4319.1
2018-Jun-23 05:16N 38°01' E 024°03'2 0.2
2018-Jun-22 17:48N 38°01' E 024°01'516.8
2018-Jun-22 17:30N 37°60' E 024°07'4318.9
2018-Jun-22 15:14N 37°38' E 024°54'519.3
2018-Jun-22 14:58N 37°36' E 024°60'918.5
2018-Jun-22 14:31N 37°32' E 025°09'2 3.8
2018-Jun-22 14:00N 37°31' E 025°11'714.6
2018-Jun-22 13:30N 37°28' E 025°19'3 6.8
2018-Jun-22 13:01N 37°25' E 025°17'1019.2
2018-Jun-22 12:31N 37°15' E 025°19'918.7
2018-Jun-22 12:00N 37°06' E 025°22'0 0.2
2018-Jun-22 11:29N 37°06' E 025°22'0 0.0
2018-Jun-22 11:00N 37°06' E 025°22'5 9.5
2018-Jun-22 10:30N 37°11' E 025°20'1019.1
2018-Jun-22 10:00N 37°20' E 025°18'815.6
2018-Jun-22 09:31N 37°28' E 025°19'5 9.5
2018-Jun-22 09:00N 37°30' E 025°14'4 8.7
2018-Jun-22 08:31N 37°32' E 025°09'917.1
2018-Jun-22 08:00N 37°36' E 024°59'1018.7
2018-Jun-22 07:28N 37°41' E 024°48'4118.7
2018-Jun-22 05:18N 38°00' E 024°03'2 0.2
2018-Jun-21 17:48N 38°01' E 024°01'518.0
2018-Jun-21 17:30N 37°60' E 024°07'3719.0
2018-Jun-21 15:32N 37°43' E 024°50'119.3
2018-Jun-21 15:30N 37°43' E 024°50'1019.1
2018-Jun-21 15:00N 37°37' E 024°60'917.8
2018-Jun-21 14:30N 37°32' E 025°09'1 3.0
2018-Jun-21 14:00N 37°31' E 025°11'815.5
2018-Jun-21 13:30N 37°28' E 025°19'4 8.2
2018-Jun-21 13:00N 37°24' E 025°17'918.9
2018-Jun-21 12:30N 37°15' E 025°19'917.7
2018-Jun-21 12:00N 37°06' E 025°22'0 0.1
2018-Jun-21 11:29N 37°06' E 025°22'0 0.0
2018-Jun-21 11:00N 37°06' E 025°22'4 8.6
2018-Jun-21 10:30N 37°10' E 025°21'1019.2
2018-Jun-21 10:01N 37°20' E 025°18'815.5
2018-Jun-21 09:29N 37°28' E 025°20'2 4.5
2018-Jun-21 09:00N 37°28' E 025°17'714.2
2018-Jun-21 08:30N 37°32' E 025°09'5818.3
2018-Jun-21 05:19N 38°00' E 024°04'3 0.3
2018-Jun-20 17:50N 38°01' E 024°01'616.8
2018-Jun-20 17:30N 37°60' E 024°08'3818.9
2018-Jun-20 15:29N 37°42' E 024°50'1219.1
2018-Jun-20 14:53N 37°35' E 025°02'617.4
2018-Jun-20 14:31N 37°32' E 025°09'4 7.1
2018-Jun-20 14:01N 37°30' E 025°13'611.2
2018-Jun-20 13:31N 37°28' E 025°19'4 8.5
2018-Jun-20 13:00N 37°24' E 025°17'918.8
2018-Jun-20 12:30N 37°15' E 025°20'917.4
2018-Jun-20 12:00N 37°06' E 025°22'0 0.1
2018-Jun-20 11:31N 37°06' E 025°22'0 0.0
2018-Jun-20 11:01N 37°06' E 025°22'713.3
2018-Jun-20 10:30N 37°13' E 025°20'1019.3
2018-Jun-20 10:00N 37°22' E 025°18'611.7
2018-Jun-20 09:30N 37°28' E 025°19'4 8.6
2018-Jun-20 09:00N 37°29' E 025°14'510.0
2018-Jun-20 08:30N 37°32' E 025°09'1517.7
2018-Jun-20 07:41N 37°39' E 024°53'418.4
2018-Jun-20 07:27N 37°42' E 024°49'3718.3
2018-Jun-20 05:25N 37°59' E 024°07'5 0.5
2018-Jun-19 17:54N 38°01' E 024°01'4318.3
2018-Jun-19 15:34N 37°43' E 024°50'118.6
2018-Jun-19 15:30N 37°43' E 024°51'1018.6
2018-Jun-19 14:59N 37°37' E 025°00'817.6
2018-Jun-19 14:30N 37°32' E 025°09'3 5.7
2018-Jun-19 14:00N 37°31' E 025°12'612.7
2018-Jun-19 13:30N 37°28' E 025°19'4 8.5
2018-Jun-19 13:00N 37°24' E 025°17'918.5
2018-Jun-19 12:30N 37°15' E 025°19'917.7
2018-Jun-19 12:00N 37°06' E 025°22'0 0.2
2018-Jun-19 11:30N 37°06' E 025°22'0 0.0
2018-Jun-19 11:00N 37°06' E 025°22'4 7.7
2018-Jun-19 10:30N 37°10' E 025°20'1019.1
2018-Jun-19 10:00N 37°19' E 025°18'817.0
2018-Jun-19 09:30N 37°28' E 025°19'2 4.6
2018-Jun-19 09:00N 37°28' E 025°17'714.0
2018-Jun-19 08:30N 37°32' E 025°09'815.1
2018-Jun-19 08:00N 37°36' E 025°01'5018.7
2018-Jun-19 05:19N 37°60' E 024°05'4 0.3
2018-Jun-18 17:48N 38°01' E 024°01'516.1
2018-Jun-18 17:30N 38°00' E 024°07'3819.3
2018-Jun-18 15:31N 37°42' E 024°50'118.5
2018-Jun-18 15:28N 37°42' E 024°50'1019.0
2018-Jun-18 14:55N 37°36' E 025°01'717.7
2018-Jun-18 14:30N 37°32' E 025°09'0 0.9
2018-Jun-18 14:01N 37°32' E 025°09'917.9
2018-Jun-18 13:30N 37°28' E 025°19'4 8.1
2018-Jun-18 13:00N 37°24' E 025°17'919.0
2018-Jun-18 12:30N 37°15' E 025°19'917.6
2018-Jun-18 12:00N 37°06' E 025°22'0 0.1
2018-Jun-18 11:30N 37°06' E 025°22'0 0.0
2018-Jun-18 11:00N 37°06' E 025°22'4 8.8
2018-Jun-18 10:30N 37°10' E 025°20'1019.1
2018-Jun-18 10:00N 37°20' E 025°18'816.2
2018-Jun-18 09:30N 37°28' E 025°19'2 4.4
2018-Jun-18 09:00N 37°29' E 025°17'713.9
2018-Jun-18 08:30N 37°32' E 025°09'815.3
2018-Jun-18 08:00N 37°36' E 025°01'5019.0
2018-Jun-18 05:23N 37°60' E 024°06'4 0.4
2018-Jun-17 18:27N 38°01' E 024°01'5318.6
2018-Jun-17 15:34N 37°36' E 025°00'119.1
2018-Jun-17 15:31N 37°35' E 025°01'713.6
2018-Jun-17 15:00N 37°32' E 025°09'1 1.1
2018-Jun-17 14:31N 37°32' E 025°09'918.1
2018-Jun-17 14:00N 37°28' E 025°19'5 9.6
2018-Jun-17 13:30N 37°23' E 025°17'1019.6
2018-Jun-17 13:00N 37°14' E 025°20'815.3
2018-Jun-17 12:30N 37°06' E 025°22'0 0.0
2018-Jun-17 12:00N 37°06' E 025°22'0 0.0
2018-Jun-17 11:30N 37°06' E 025°22'0 0.0
2018-Jun-17 11:00N 37°06' E 025°22'5 9.4
2018-Jun-17 10:30N 37°11' E 025°20'918.9
2018-Jun-17 10:00N 37°20' E 025°18'815.6
2018-Jun-17 09:30N 37°28' E 025°19'2 4.8
2018-Jun-17 09:00N 37°28' E 025°17'713.7
2018-Jun-17 08:30N 37°32' E 025°09'714.3
2018-Jun-17 08:01N 37°35' E 025°01'1219.1
2018-Jun-17 07:23N 37°42' E 024°49'3919.1
2018-Jun-17 05:21N 37°60' E 024°05'3 0.3
2018-Jun-16 18:21N 38°01' E 024°01'617.2
2018-Jun-16 18:00N 37°60' E 024°08'4618.6
2018-Jun-16 15:30N 37°36' E 024°59'917.9
2018-Jun-16 15:01N 37°32' E 025°09'1 2.2
2018-Jun-16 14:31N 37°31' E 025°10'816.2
2018-Jun-16 14:00N 37°28' E 025°19'5 9.0
2018-Jun-16 13:30N 37°24' E 025°17'1019.5
2018-Jun-16 13:00N 37°14' E 025°20'816.0
2018-Jun-16 12:30N 37°06' E 025°22'0 0.0
2018-Jun-16 12:00N 37°06' E 025°22'0 0.0
2018-Jun-16 11:30N 37°06' E 025°22'0 0.0
2018-Jun-16 11:00N 37°06' E 025°22'510.8
2018-Jun-16 10:31N 37°11' E 025°20'918.7
2018-Jun-16 10:00N 37°21' E 025°18'714.5
2018-Jun-16 09:30N 37°28' E 025°19'611.6
2018-Jun-16 09:00N 37°30' E 025°13'3 6.9
2018-Jun-16 08:30N 37°32' E 025°09'5818.7
2018-Jun-16 05:25N 37°60' E 024°05'4 0.3
2018-Jun-15 17:54N 38°01' E 024°01'716.9
2018-Jun-15 17:29N 37°59' E 024°10'3518.5
2018-Jun-15 15:35N 37°43' E 024°49'218.6
2018-Jun-15 15:29N 37°42' E 024°51'918.8
2018-Jun-15 14:59N 37°36' E 025°00'817.1
2018-Jun-15 14:30N 37°32' E 025°09'3 5.6
2018-Jun-15 14:01N 37°30' E 025°12'712.9
2018-Jun-15 13:30N 37°28' E 025°19'5 9.1
2018-Jun-15 13:00N 37°24' E 025°17'1319.3
2018-Jun-15 12:20N 37°11' E 025°21'514.4
2018-Jun-15 12:00N 37°06' E 025°22'0 0.1
2018-Jun-15 11:30N 37°06' E 025°22'0 0.1
2018-Jun-15 11:01N 37°06' E 025°22'4 8.8
2018-Jun-15 10:31N 37°10' E 025°20'918.8
2018-Jun-15 10:01N 37°20' E 025°18'816.1
2018-Jun-15 09:30N 37°28' E 025°19'3 5.7
2018-Jun-15 09:00N 37°29' E 025°16'612.6
2018-Jun-15 08:30N 37°32' E 025°09'715.0
2018-Jun-15 08:01N 37°36' E 025°01'918.8
2018-Jun-15 07:31N 37°41' E 024°51'4218.7
2018-Jun-15 05:15N 38°00' E 024°04'2 0.1
2018-Jun-14 17:47N 38°01' E 024°02'519.0
2018-Jun-14 17:30N 37°60' E 024°08'3719.1
2018-Jun-14 15:34N 37°41' E 024°49'219.0
2018-Jun-14 15:27N 37°40' E 024°51'919.3
2018-Jun-14 15:00N 37°36' E 025°01'814.9
2018-Jun-14 14:30N 37°32' E 025°09'2 3.7
2018-Jun-14 14:00N 37°31' E 025°11'715.1
2018-Jun-14 13:31N 37°28' E 025°19'4 7.7
2018-Jun-14 13:00N 37°24' E 025°17'1019.3
2018-Jun-14 12:31N 37°15' E 025°20'917.8
2018-Jun-14 12:00N 37°06' E 025°22'0 0.1
2018-Jun-14 11:30N 37°06' E 025°22'0 0.0
2018-Jun-14 11:00N 37°06' E 025°22'5 9.5
2018-Jun-14 10:30N 37°11' E 025°20'918.7
2018-Jun-14 10:00N 37°20' E 025°18'815.8
2018-Jun-14 09:30N 37°28' E 025°19'1 2.5
2018-Jun-14 09:01N 37°28' E 025°18'  

Dump ship's entire track history